createdAt,value
2019-06-07T00:00:44.444Z,14.7
2019-06-07T00:01:43.739Z,14.7
2019-06-07T00:02:42.888Z,14.6
2019-06-07T00:03:42.364Z,14.6
2019-06-07T00:04:41.249Z,14.5
2019-06-07T00:05:40.553Z,14.5
2019-06-07T00:06:40.086Z,14.5
2019-06-07T00:07:39.507Z,14.4
2019-06-07T00:08:29.280Z,14.4
2019-06-07T00:09:17.719Z,14.4
2019-06-07T00:10:37.797Z,14.4
2019-06-07T00:11:36.520Z,14.4
2019-06-07T00:12:35.313Z,14.4
2019-06-07T00:13:35.102Z,14.3
2019-06-07T00:14:33.998Z,14.3
2019-06-07T00:15:33.263Z,14.3
2019-06-07T00:16:32.553Z,14.3
2019-06-07T00:17:31.955Z,14.3
2019-06-07T00:18:31.346Z,14.3
2019-06-07T00:19:30.657Z,14.3
2019-06-07T00:20:29.573Z,14.2
2019-06-07T00:22:32.749Z,14.2
2019-06-07T00:23:27.606Z,14.2
2019-06-07T00:23:58.006Z,14.2
2019-06-07T00:24:28.512Z,14.1
2019-06-07T00:25:26.182Z,14.1
2019-06-07T00:26:25.380Z,14.1
2019-06-07T00:27:24.789Z,14.1
2019-06-07T00:28:23.595Z,14.1
2019-06-07T00:37:07.047Z,14.1
2019-06-07T00:38:22.213Z,13.9
2019-06-07T00:39:26.392Z,14
2019-06-07T00:40:32.443Z,13.9
2019-06-07T00:41:22.493Z,13.9
2019-06-07T00:42:23.929Z,14
2019-06-07T00:43:26.022Z,13.9
2019-06-07T00:44:23.299Z,13.9
2019-06-07T00:45:24.592Z,13.9
2019-06-07T00:47:13.009Z,13.9
2019-06-07T00:47:40.480Z,13.9
2019-06-07T00:48:33.104Z,13.9
2019-06-07T00:49:41.620Z,13.8
2019-06-07T00:50:19.108Z,13.8
2019-06-07T00:51:06.886Z,13.8
2019-06-07T00:52:06.116Z,13.8
2019-06-07T00:53:32.284Z,13.7
2019-06-07T00:54:06.787Z,13.7
2019-06-07T00:54:37.207Z,13.7
2019-06-07T00:55:07.868Z,13.7
2019-06-07T00:55:38.252Z,13.7
2019-06-07T00:57:02.401Z,13.7
2019-06-07T00:58:03.092Z,13.7
2019-06-07T00:59:19.026Z,13.7
2019-06-07T01:00:01.760Z,13.7
2019-06-07T01:00:59.476Z,13.7
2019-06-07T01:01:58.674Z,13.7
2019-06-07T01:02:58.085Z,13.7
2019-06-07T01:03:28.735Z,13.7
2019-06-07T01:03:59.254Z,13.6
2019-06-07T01:04:29.645Z,13.6
2019-06-07T01:04:59.950Z,13.6
2019-06-07T01:05:32.168Z,13.6
2019-06-07T01:06:00.554Z,13.6
2019-06-07T01:06:31.062Z,13.6
2019-06-07T01:07:54.297Z,13.6
2019-06-07T01:08:53.599Z,13.6
2019-06-07T01:09:53.049Z,13.5
2019-06-07T01:10:54.771Z,13.5
2019-06-07T01:11:51.147Z,13.5
2019-06-07T01:12:50.487Z,13.5
2019-06-07T01:13:27.151Z,13.5
2019-06-07T01:13:51.649Z,13.5
2019-06-07T01:14:29.001Z,13.5
2019-06-07T01:14:52.367Z,13.4
2019-06-07T01:15:29.641Z,13.4
2019-06-07T01:16:26.920Z,13.4
2019-06-07T01:17:36.159Z,13.5
2019-06-07T01:18:51.608Z,13.5
2019-06-07T01:19:45.356Z,13.4
2019-06-07T01:20:44.647Z,13.4
2019-06-07T01:21:44.046Z,13.3
2019-06-07T01:22:43.092Z,13.3
2019-06-07T01:24:12.685Z,13.3
2019-06-07T01:24:45.324Z,13.3
2019-06-07T01:25:22.171Z,13.3
2019-06-07T01:26:26.794Z,13.3
2019-06-07T01:27:23.783Z,13.3
2019-06-07T01:28:38.837Z,13.3
2019-06-07T01:29:38.147Z,13.3
2019-06-07T01:30:37.012Z,13.3
2019-06-07T01:31:36.331Z,13.3
2019-06-07T01:32:35.715Z,13.3
2019-06-07T01:33:51.776Z,13.3
2019-06-07T01:34:35.667Z,13.3
2019-06-07T01:35:06.051Z,13.3
2019-06-07T01:35:36.499Z,13.3
2019-06-07T01:36:06.954Z,13.3
2019-06-07T01:36:37.380Z,13.3
2019-06-07T01:37:07.899Z,13.3
2019-06-07T01:38:31.243Z,13.3
2019-06-07T01:39:32.470Z,13.3
2019-06-07T01:40:33.411Z,13.3
2019-06-07T01:41:31.408Z,13.3
2019-06-07T01:42:31.528Z,13.3
2019-06-07T01:43:31.647Z,13.3
2019-06-07T01:44:31.605Z,13.3
2019-06-07T01:45:31.568Z,13.3
2019-06-07T01:46:29.264Z,13.3
2019-06-07T01:46:58.550Z,13.3
2019-06-07T01:48:49.664Z,13.3
2019-06-07T01:49:30.106Z,13.3
2019-06-07T01:50:29.285Z,13.3
2019-06-07T01:51:27.011Z,13.3
2019-06-07T01:52:26.965Z,13.3
2019-06-07T01:53:30.993Z,13.2
2019-06-07T01:54:59.089Z,13.2
2019-06-07T01:55:33.323Z,13.2
2019-06-07T01:56:22.593Z,13.2
2019-06-07T01:57:48.772Z,13.2
2019-06-07T01:58:29.102Z,13.2
2019-06-07T01:59:28.352Z,13.2
2019-06-07T02:00:15.019Z,13.2
2019-06-07T02:01:13.712Z,13.2
2019-06-07T02:02:13.116Z,13.2
2019-06-07T02:03:12.526Z,13.2
2019-06-07T02:04:11.436Z,13.2
2019-06-07T02:05:10.730Z,13.2
2019-06-07T02:06:10.163Z,13.2
2019-06-07T02:06:40.272Z,13.2
2019-06-07T02:07:10.803Z,13.2
2019-06-07T02:08:08.373Z,13.1
2019-06-07T02:09:07.660Z,13.1
2019-06-07T02:10:07.090Z,13.1
2019-06-07T02:11:06.538Z,13.1
2019-06-07T02:11:37.039Z,13.1
2019-06-07T02:12:43.409Z,13.1
2019-06-07T02:14:04.138Z,13.1
2019-06-07T02:15:04.577Z,13
2019-06-07T02:16:02.394Z,13
2019-06-07T02:17:02.088Z,13
2019-06-07T02:18:01.075Z,13.1
2019-06-07T02:19:04.263Z,13.1
2019-06-07T02:20:58.931Z,13.1
2019-06-07T02:21:35.004Z,13.1
2019-06-07T02:21:59.857Z,13.1
2019-06-07T02:22:32.996Z,13.1
2019-06-07T02:23:56.788Z,13.1
2019-06-07T02:25:50.339Z,13
2019-06-07T02:26:54.194Z,13
2019-06-07T02:28:42.885Z,13
2019-06-07T02:28:47.659Z,13
2019-06-07T02:29:51.787Z,13
2019-06-07T02:31:01.140Z,13
2019-06-07T02:31:36.223Z,13
2019-06-07T02:32:36.158Z,13
2019-06-07T02:33:39.922Z,13
2019-06-07T02:34:48.103Z,13
2019-06-07T02:35:47.421Z,13
2019-06-07T02:36:46.338Z,13
2019-06-07T02:37:46.051Z,13
2019-06-07T02:38:45.026Z,13
2019-06-07T02:39:44.470Z,13
2019-06-07T02:40:43.585Z,13
2019-06-07T02:41:14.306Z,13
2019-06-07T02:41:44.730Z,13
2019-06-07T02:42:15.124Z,13
2019-06-07T02:42:45.548Z,13
2019-06-07T02:43:15.951Z,13
2019-06-07T02:43:46.520Z,13
2019-06-07T02:44:16.919Z,13
2019-06-07T02:46:50.353Z,13
2019-06-07T02:47:39.043Z,13
2019-06-07T02:48:40.901Z,13
2019-06-07T02:49:44.758Z,13
2019-06-07T02:50:39.394Z,13
2019-06-07T02:51:42.485Z,13
2019-06-07T02:52:07.496Z,13
2019-06-07T02:52:42.502Z,13
2019-06-07T02:53:08.439Z,13
2019-06-07T02:53:40.964Z,13
2019-06-07T02:54:09.249Z,13
2019-06-07T02:54:41.282Z,12.9
2019-06-07T02:55:10.243Z,12.9
2019-06-07T02:56:59.289Z,12.9
2019-06-07T02:57:43.329Z,12.9
2019-06-07T02:58:42.246Z,12.9
2019-06-07T03:00:54.303Z,12.9
2019-06-07T03:01:11.535Z,12.9
2019-06-07T03:02:41.284Z,12.9
2019-06-07T03:02:56.924Z,12.9
2019-06-07T03:03:39.352Z,12.9
2019-06-07T03:04:42.012Z,12.9
2019-06-07T03:06:23.761Z,12.9
2019-06-07T03:07:22.826Z,12.9
2019-06-07T03:08:22.252Z,12.9
2019-06-07T03:09:21.551Z,13
2019-06-07T03:10:21.002Z,13
2019-06-07T03:11:20.120Z,13
2019-06-07T03:11:50.540Z,13
2019-06-07T03:12:51.607Z,13
2019-06-07T03:13:21.989Z,13
2019-06-07T03:13:52.380Z,13
2019-06-07T03:14:22.678Z,13
2019-06-07T03:14:53.141Z,13
2019-06-07T03:16:16.003Z,13
2019-06-07T03:17:15.320Z,13
2019-06-07T03:18:14.727Z,13
2019-06-07T03:19:13.977Z,13
2019-06-07T03:20:13.314Z,13
2019-06-07T03:21:12.281Z,13
2019-06-07T03:22:11.472Z,13
2019-06-07T03:22:42.199Z,13
2019-06-07T03:23:12.751Z,13
2019-06-07T03:23:43.142Z,13
2019-06-07T03:24:13.542Z,13
2019-06-07T03:24:44.694Z,13
2019-06-07T03:26:08.429Z,13
2019-06-07T03:28:07.233Z,13
2019-06-07T03:29:06.170Z,12.9
2019-06-07T03:31:01.282Z,12.9
2019-06-07T03:31:05.030Z,13
2019-06-07T03:32:04.182Z,13
2019-06-07T03:33:03.224Z,13
2019-06-07T03:33:45.750Z,13
2019-06-07T03:34:03.709Z,13
2019-06-07T03:34:44.082Z,13
2019-06-07T03:36:27.240Z,12.9
2019-06-07T03:37:01.944Z,13
2019-06-07T03:37:59.477Z,13
2019-06-07T03:38:58.389Z,13
2019-06-07T03:39:57.779Z,13
2019-06-07T03:40:57.119Z,13
2019-06-07T03:42:08.889Z,13
2019-06-07T03:42:55.698Z,13
2019-06-07T03:43:54.988Z,13
2019-06-07T03:44:32.854Z,13
2019-06-07T03:45:53.294Z,13
2019-06-07T03:46:52.687Z,13
2019-06-07T03:47:53.037Z,13
2019-06-07T03:48:50.919Z,13.1
2019-06-07T03:49:50.237Z,13.1
2019-06-07T03:51:24.954Z,13.1
2019-06-07T03:51:41.083Z,13.1
2019-06-07T03:52:47.957Z,13.1
2019-06-07T03:54:46.620Z,13.1
2019-06-07T03:55:45.746Z,13.1
2019-06-07T03:56:45.204Z,13.1
2019-06-07T03:58:48.459Z,13.1
2019-06-07T03:58:52.357Z,13.1
2019-06-07T03:59:42.365Z,13.1
2019-06-07T04:00:43.975Z,13.1
2019-06-07T04:01:41.815Z,13.1
2019-06-07T04:02:42.633Z,13.1
2019-06-07T04:03:52.223Z,13.1
2019-06-07T04:04:40.443Z,13.1
2019-06-07T04:05:43.977Z,13.1
2019-06-07T04:06:43.037Z,13.1
2019-06-07T04:07:44.743Z,13.1
2019-06-07T04:08:42.495Z,13.1
2019-06-07T04:09:43.461Z,13.1
2019-06-07T04:11:00.974Z,13.1
2019-06-07T04:11:41.262Z,13.1
2019-06-07T04:12:44.604Z,13.1
2019-06-07T04:13:43.255Z,13.1
2019-06-07T04:14:34.979Z,13.1
2019-06-07T04:15:37.857Z,13.2
2019-06-07T04:16:44.548Z,13.2
2019-06-07T04:17:39.280Z,13.2
2019-06-07T04:18:42.716Z,13.2
2019-06-07T04:19:35.718Z,13.2
2019-06-07T04:19:57.591Z,13.2
2019-06-07T04:20:36.091Z,13.2
2019-06-07T04:20:58.372Z,13.2
2019-06-07T04:22:25.028Z,13.3
2019-06-07T04:23:37.540Z,13.3
2019-06-07T04:23:54.985Z,13.3
2019-06-07T04:24:25.273Z,13.3
2019-06-07T04:25:22.843Z,13.3
2019-06-07T04:26:22.197Z,13.3
2019-06-07T04:27:20.987Z,13.3
2019-06-07T04:28:20.382Z,13.3
2019-06-07T04:30:08.563Z,13.3
2019-06-07T04:30:42.520Z,13.3
2019-06-07T04:31:18.178Z,13.4
2019-06-07T04:31:48.839Z,13.4
2019-06-07T04:32:19.246Z,13.4
2019-06-07T04:32:49.544Z,13.4
2019-06-07T04:33:19.829Z,13.4
2019-06-07T04:34:15.879Z,13.4
2019-06-07T04:35:15.275Z,13.4
2019-06-07T04:36:14.610Z,13.4
2019-06-07T04:37:13.801Z,13.4
2019-06-07T04:38:12.689Z,13.4
2019-06-07T04:38:43.523Z,13.4
2019-06-07T04:39:13.451Z,13.4
2019-06-07T04:39:45.963Z,13.4
2019-06-07T04:40:14.338Z,13.4
2019-06-07T04:40:44.823Z,13.4
2019-06-07T04:41:15.234Z,13.5
2019-06-07T04:41:45.621Z,13.5
2019-06-07T04:42:15.913Z,13.4
2019-06-07T04:42:46.582Z,13.4
2019-06-07T04:44:08.229Z,13.4
2019-06-07T04:45:50.264Z,13.4
2019-06-07T04:45:53.419Z,13.4
2019-06-07T04:46:23.700Z,13.4
2019-06-07T04:47:06.185Z,13.4
2019-06-07T04:48:05.380Z,13.4
2019-06-07T04:48:43.894Z,13.4
2019-06-07T04:49:06.351Z,13.5
2019-06-07T04:49:44.396Z,13.5
2019-06-07T04:50:07.235Z,13.5
2019-06-07T04:50:44.331Z,13.5
2019-06-07T04:51:08.311Z,13.5
2019-06-07T04:51:42.637Z,13.5
2019-06-07T04:52:08.991Z,13.6
2019-06-07T04:52:46.050Z,13.6
2019-06-07T04:53:43.843Z,13.6
2019-06-07T04:55:00.026Z,13.6
2019-06-07T04:55:59.423Z,13.5
2019-06-07T04:56:58.731Z,13.5
2019-06-07T04:57:57.517Z,13.5
2019-06-07T04:58:56.912Z,13.5
2019-06-07T05:00:49.529Z,13.5
2019-06-07T05:01:05.452Z,13.5
2019-06-07T05:01:42.992Z,13.5
2019-06-07T05:02:43.824Z,13.6
2019-06-07T05:03:44.812Z,13.6
2019-06-07T05:04:52.542Z,13.6
2019-06-07T05:05:51.840Z,13.6
2019-06-07T05:06:51.153Z,13.6
2019-06-07T05:07:50.432Z,13.6
2019-06-07T05:08:49.326Z,13.6
2019-06-07T05:09:48.520Z,13.6
2019-06-07T05:10:19.135Z,13.6
2019-06-07T05:10:49.714Z,13.6
2019-06-07T05:11:20.097Z,13.6
2019-06-07T05:11:50.510Z,13.6
2019-06-07T05:12:20.794Z,13.6
2019-06-07T05:12:51.174Z,13.6
2019-06-07T05:13:21.656Z,13.6
2019-06-07T05:14:45.020Z,13.7
2019-06-07T05:15:44.418Z,13.7
2019-06-07T05:16:45.073Z,13.7
2019-06-07T05:17:45.555Z,13.8
2019-06-07T05:18:43.822Z,13.8
2019-06-07T05:19:45.112Z,13.8
2019-06-07T05:20:45.085Z,13.9
2019-06-07T05:22:05.583Z,13.9
2019-06-07T05:22:45.808Z,13.9
2019-06-07T05:24:07.291Z,13.9
2019-06-07T05:24:44.589Z,13.9
2019-06-07T05:25:45.007Z,14
2019-06-07T05:26:43.003Z,14
2019-06-07T05:27:46.693Z,14
2019-06-07T05:28:05.606Z,14
2019-06-07T05:28:43.201Z,14
2019-06-07T05:29:44.288Z,14.1
2019-06-07T05:31:08.704Z,14.1
2019-06-07T05:31:45.758Z,14
2019-06-07T05:32:41.902Z,14
2019-06-07T05:33:41.136Z,14.1
2019-06-07T05:34:42.020Z,14.1
2019-06-07T05:35:43.212Z,14.1
2019-06-07T05:36:28.674Z,14.1
2019-06-07T05:37:28.017Z,14.2
2019-06-07T05:38:26.893Z,14.2
2019-06-07T05:39:26.398Z,14.3
2019-06-07T05:40:25.689Z,14.3
2019-06-07T05:41:24.581Z,14.3
2019-06-07T05:42:23.969Z,14.3
2019-06-07T05:42:54.649Z,14.3
2019-06-07T05:43:25.053Z,14.4
2019-06-07T05:44:22.387Z,14.4
2019-06-07T05:45:21.490Z,14.4
2019-06-07T05:46:20.908Z,14.4
2019-06-07T05:47:20.158Z,14.4
2019-06-07T05:47:51.811Z,14.4
2019-06-07T05:48:21.641Z,14.4
2019-06-07T05:49:18.694Z,14.4
2019-06-07T05:50:56.703Z,14.4
2019-06-07T05:51:29.972Z,14.4
2019-06-07T05:53:15.944Z,14.5
2019-06-07T05:54:15.255Z,14.6
2019-06-07T05:55:14.185Z,14.5
2019-06-07T05:56:16.150Z,14.5
2019-06-07T05:57:12.979Z,14.6
2019-06-07T05:57:51.410Z,14.6
2019-06-07T05:58:13.740Z,14.6
2019-06-07T05:58:45.253Z,14.6
2019-06-07T05:59:14.549Z,14.7
2019-06-07T05:59:48.178Z,14.7
2019-06-07T06:00:15.549Z,14.7
2019-06-07T06:02:03.030Z,14.7
2019-06-07T06:02:26.807Z,14.7
2019-06-07T06:03:08.379Z,14.8
2019-06-07T06:04:07.562Z,14.8
2019-06-07T06:05:07.004Z,14.9
2019-06-07T06:06:06.433Z,14.9
2019-06-07T06:07:05.766Z,15
2019-06-07T06:07:50.721Z,15
2019-06-07T06:08:45.147Z,15
2019-06-07T06:09:38.662Z,15
2019-06-07T06:11:02.298Z,15.1
2019-06-07T06:12:03.028Z,15.2
2019-06-07T06:13:00.919Z,15.2
2019-06-07T06:14:08.916Z,15.3
2019-06-07T06:14:59.833Z,15.3
2019-06-07T06:16:02.908Z,15.4
2019-06-07T06:16:58.153Z,15.4
2019-06-07T06:17:28.766Z,15.4
2019-06-07T06:17:59.157Z,15.5
2019-06-07T06:18:29.566Z,15.5
2019-06-07T06:19:00.056Z,15.6
2019-06-07T06:19:30.239Z,15.6
2019-06-07T06:20:00.535Z,15.4
2019-06-07T06:21:17.193Z,15.4
2019-06-07T06:21:53.109Z,15.4
2019-06-07T06:22:54.101Z,15.3
2019-06-07T06:23:54.576Z,15.4
2019-06-07T06:25:34.481Z,15.4
2019-06-07T06:25:58.432Z,15.4
2019-06-07T06:28:02.434Z,15.4
2019-06-07T06:28:17.410Z,15.4
2019-06-07T06:28:50.441Z,15.4
2019-06-07T06:29:19.823Z,15.4
2019-06-07T06:29:52.818Z,15.4
2019-06-07T06:30:20.589Z,15.4
2019-06-07T06:30:50.997Z,15.5
2019-06-07T06:31:21.473Z,15.5
2019-06-07T06:32:59.115Z,15.5
2019-06-07T06:33:35.269Z,15.5
2019-06-07T06:34:55.857Z,15.5
2019-06-07T06:35:51.149Z,15.6
2019-06-07T06:36:50.697Z,15.6
2019-06-07T06:37:53.658Z,15.6
2019-06-07T06:38:51.862Z,15.7
2019-06-07T06:39:50.553Z,15.7
2019-06-07T06:40:16.934Z,15.7
2019-06-07T06:41:16.423Z,15.7
2019-06-07T06:43:50.222Z,15.9
2019-06-07T06:44:09.348Z,15.9
2019-06-07T06:44:49.687Z,15.9
2019-06-07T06:45:38.241Z,16
2019-06-07T06:46:57.440Z,16
2019-06-07T06:47:35.754Z,16.1
2019-06-07T06:48:06.343Z,16.1
2019-06-07T06:48:36.733Z,16.1
2019-06-07T06:49:07.024Z,16.1
2019-06-07T06:49:44.134Z,16.2
2019-06-07T06:50:40.932Z,16.1
2019-06-07T06:51:08.951Z,16.1
2019-06-07T06:52:32.182Z,16.1
2019-06-07T06:53:31.472Z,16.1
2019-06-07T06:54:59.885Z,16.2
2019-06-07T06:55:33.342Z,16.2
2019-06-07T06:56:29.325Z,16.3
2019-06-07T06:57:28.727Z,16.3
2019-06-07T06:58:28.132Z,16.4
2019-06-07T06:59:41.677Z,16.4
2019-06-07T07:01:05.689Z,16.5
2019-06-07T07:02:25.090Z,16.7
2019-06-07T07:04:23.924Z,16.8
2019-06-07T07:05:23.115Z,16.9
2019-06-07T07:06:27.467Z,17
2019-06-07T07:07:21.837Z,17.1
2019-06-07T07:08:21.043Z,17.1
2019-06-07T07:09:20.426Z,17.2
2019-06-07T07:10:00.225Z,17.2
2019-06-07T07:10:55.487Z,17.2
2019-06-07T07:12:18.424Z,17.2
2019-06-07T07:13:17.304Z,17.2
2019-06-07T07:14:17.155Z,17.2
2019-06-07T07:15:16.451Z,17.2
2019-06-07T07:16:15.749Z,17.2
2019-06-07T07:17:14.648Z,17.2
2019-06-07T07:18:14.025Z,17.2
2019-06-07T07:19:13.413Z,17.2
2019-06-07T07:20:12.811Z,17.3
2019-06-07T07:20:51.181Z,17.3
2019-06-07T07:21:54.843Z,17.3
2019-06-07T07:23:10.857Z,17.4
2019-06-07T07:24:22.809Z,17.4
2019-06-07T07:25:09.140Z,17.3
2019-06-07T07:26:08.433Z,17.2
2019-06-07T07:27:07.727Z,17.2
2019-06-07T07:28:07.124Z,17.2
2019-06-07T07:29:06.600Z,17.2
2019-06-07T07:30:37.794Z,17.2
2019-06-07T07:31:10.480Z,17.2
2019-06-07T07:32:04.513Z,17.2
2019-06-07T07:33:07.452Z,17.2
2019-06-07T07:34:37.692Z,17.2
2019-06-07T07:35:09.901Z,17.2
2019-06-07T07:36:40.073Z,17.2
2019-06-07T07:38:00.900Z,17.2
2019-06-07T07:39:06.873Z,17.2
2019-06-07T07:41:08.735Z,17.2
2019-06-07T07:41:17.748Z,17.2
2019-06-07T07:42:22.084Z,17.2
2019-06-07T07:42:58.344Z,17.2
2019-06-07T07:44:09.907Z,17.2
2019-06-07T07:44:57.273Z,17.2
2019-06-07T07:46:20.014Z,17.2
2019-06-07T07:46:32.170Z,17.2
2019-06-07T07:47:02.572Z,17.2
2019-06-07T07:48:18.837Z,17.2
2019-06-07T07:48:56.636Z,17.2
2019-06-07T07:49:59.379Z,17.2
2019-06-07T07:51:03.311Z,17.2
2019-06-07T07:51:59.314Z,17.2
2019-06-07T07:53:01.157Z,17.2
2019-06-07T07:54:11.506Z,17.2
2019-06-07T07:54:58.634Z,17.3
2019-06-07T07:56:00.385Z,17.3
2019-06-07T07:56:57.002Z,17.3
2019-06-07T07:58:02.072Z,17.3
2019-06-07T08:00:52.758Z,17.4
2019-06-07T08:01:12.915Z,17.4
2019-06-07T08:01:43.431Z,17.4
2019-06-07T08:02:43.515Z,17.6
2019-06-07T08:03:42.808Z,17.7
2019-06-07T08:05:41.815Z,17.7
2019-06-07T08:06:00.072Z,17.7
2019-06-07T08:06:40.774Z,17.8
2019-06-07T08:07:11.263Z,17.8
2019-06-07T08:07:41.841Z,17.8
2019-06-07T08:08:42.247Z,17.9
2019-06-07T08:09:12.636Z,17.9
2019-06-07T08:10:37.778Z,18
2019-06-07T08:11:37.170Z,18
2019-06-07T08:13:26.795Z,18.1
2019-06-07T08:14:34.953Z,18.2
2019-06-07T08:15:34.259Z,18.3
2019-06-07T08:16:19.021Z,18.3
2019-06-07T08:17:05.733Z,18.3
2019-06-07T08:17:36.134Z,18.4
2019-06-07T08:18:06.659Z,18.4
2019-06-07T08:18:37.041Z,18.5
2019-06-07T08:19:07.430Z,18.5
2019-06-07T08:19:37.815Z,18.6
2019-06-07T08:20:08.243Z,18.6
2019-06-07T08:21:30.462Z,18.7
2019-06-07T08:22:29.570Z,18.7
2019-06-07T08:23:28.937Z,18.7
2019-06-07T08:24:28.250Z,18.8
2019-06-07T08:25:27.699Z,18.9
2019-06-07T08:26:27.025Z,19
2019-06-07T08:27:27.133Z,19
2019-06-07T08:27:59.773Z,19
2019-06-07T08:28:30.214Z,19.1
2019-06-07T08:29:03.796Z,19.1
2019-06-07T08:30:25.621Z,19.2
2019-06-07T08:31:08.678Z,19.2
2019-06-07T08:32:23.188Z,19.2
2019-06-07T08:33:27.540Z,19.3
2019-06-07T08:34:21.808Z,19.4
2019-06-07T08:36:21.986Z,19.4
2019-06-07T08:36:44.183Z,19.4
2019-06-07T08:37:19.627Z,19.4
2019-06-07T08:38:52.372Z,19.4
2019-06-07T08:39:09.282Z,19.4
2019-06-07T08:39:39.791Z,19.5
2019-06-07T08:40:17.807Z,19.5
2019-06-07T08:41:12.185Z,19.5
2019-06-07T08:41:18.035Z,19.5
2019-06-07T08:42:59.389Z,19.5
2019-06-07T08:44:25.979Z,19.6
2019-06-07T08:45:14.709Z,19.6
2019-06-07T08:46:14.139Z,19.6
2019-06-07T08:47:21.641Z,19.7
2019-06-07T08:48:30.516Z,19.6
2019-06-07T08:49:13.427Z,19.6
2019-06-07T08:49:43.828Z,19.6
2019-06-07T08:50:14.343Z,19.6
2019-06-07T08:50:44.729Z,19.6
2019-06-07T08:52:13.119Z,19.6
2019-06-07T08:54:23.848Z,19.6
2019-06-07T08:55:08.163Z,19.4
2019-06-07T08:57:22.269Z,19.4
2019-06-07T08:58:09.407Z,19.4
2019-06-07T08:59:12.012Z,19.4
2019-06-07T09:00:47.958Z,19.5
2019-06-07T09:02:25.918Z,19.5
2019-06-07T09:04:11.772Z,19.6
2019-06-07T09:05:13.062Z,19.6
2019-06-07T09:07:10.208Z,19.6
2019-06-07T09:07:23.798Z,19.6
2019-06-07T09:08:30.984Z,19.6
2019-06-07T09:10:15.262Z,19.7
2019-06-07T09:10:29.367Z,19.7
2019-06-07T09:12:11.206Z,19.9
2019-06-07T09:12:27.862Z,19.9
2019-06-07T09:13:12.025Z,19.8
2019-06-07T09:14:09.526Z,19.8
2019-06-07T09:15:24.002Z,19.9
2019-06-07T09:17:11.686Z,20
2019-06-07T09:17:24.229Z,20
2019-06-07T09:18:45.091Z,20.1
2019-06-07T09:19:52.238Z,20.2
2019-06-07T09:20:51.505Z,20.2
2019-06-07T09:21:22.115Z,20.2
2019-06-07T09:21:52.622Z,20.3
2019-06-07T09:22:50.322Z,20.3
2019-06-07T09:23:50.021Z,20.3
2019-06-07T09:24:49.062Z,20.3
2019-06-07T09:26:16.476Z,20.2
2019-06-07T09:26:20.727Z,20.2
2019-06-07T09:26:51.229Z,20.2
2019-06-07T09:27:21.740Z,20.2
2019-06-07T09:27:52.205Z,20.2
2019-06-07T09:28:46.476Z,20.2
2019-06-07T09:29:45.909Z,20.2
2019-06-07T09:30:45.171Z,20.2
2019-06-07T09:31:54.205Z,20.2
2019-06-07T09:32:19.091Z,20.2
2019-06-07T09:32:45.711Z,20.2
2019-06-07T09:33:43.805Z,20.2
2019-06-07T09:34:43.226Z,20.2
2019-06-07T09:35:42.129Z,20.2
2019-06-07T09:36:14.057Z,20.2
2019-06-07T09:36:42.695Z,20.2
2019-06-07T09:38:25.360Z,20.2
2019-06-07T09:38:28.627Z,20.2
2019-06-07T09:39:39.681Z,20.2
2019-06-07T09:40:39.032Z,20.2
2019-06-07T09:41:50.830Z,20.2
2019-06-07T09:42:38.061Z,20.2
2019-06-07T09:44:25.976Z,20.2
2019-06-07T09:45:12.313Z,20.3
2019-06-07T09:46:16.812Z,20.2
2019-06-07T09:47:33.319Z,20.3
2019-06-07T09:49:09.588Z,20.3
2019-06-07T09:49:35.094Z,20.3
2019-06-07T09:50:33.194Z,20.2
2019-06-07T09:51:32.483Z,20.2
2019-06-07T09:52:31.787Z,20.2
2019-06-07T09:53:24.006Z,20.2
2019-06-07T09:55:24.945Z,20.2
2019-06-07T09:56:11.926Z,20.2
2019-06-07T09:57:16.123Z,20.2
2019-06-07T09:58:53.426Z,20.2
2019-06-07T10:00:43.237Z,20.2
2019-06-07T10:01:10.462Z,20.2
2019-06-07T10:05:23.729Z,20.5
2019-06-07T10:11:05.317Z,20.2
2019-06-07T10:12:19.505Z,20.4
2019-06-07T10:13:18.930Z,20.4
2019-06-07T10:14:18.329Z,20.4
2019-06-07T10:15:17.748Z,20.5
2019-06-07T10:16:17.236Z,20.5
2019-06-07T10:16:49.221Z,20.5
2019-06-07T10:17:17.725Z,20.6
2019-06-07T10:17:48.243Z,20.6
2019-06-07T10:18:18.641Z,20.6
2019-06-07T10:18:49.108Z,20.6
2019-06-07T10:19:19.511Z,20.7
2019-06-07T10:19:50.055Z,20.7
2019-06-07T10:22:13.706Z,21
2019-06-07T10:25:11.888Z,20.8
2019-06-07T10:27:10.692Z,20.8
2019-06-07T10:27:41.411Z,20.8
2019-06-07T10:28:11.834Z,20.9
2019-06-07T10:28:42.224Z,20.9
2019-06-07T10:29:12.623Z,20.9
2019-06-07T10:29:43.048Z,20.9
2019-06-07T10:30:13.435Z,20.9
2019-06-07T10:30:43.842Z,20.9
2019-06-07T10:31:14.499Z,21
2019-06-07T10:31:45.020Z,21
2019-06-07T10:33:08.833Z,21.1
2019-06-07T10:35:12.670Z,21.2
2019-06-07T10:36:06.543Z,21.3
2019-06-07T10:40:04.628Z,21.5
2019-06-07T10:40:33.308Z,21.5
2019-06-07T10:41:04.535Z,21.5
2019-06-07T10:41:34.132Z,21.5
2019-06-07T10:42:09.585Z,21.6
2019-06-07T10:42:35.083Z,21.6
2019-06-07T10:45:02.042Z,21.6
2019-06-07T10:45:59.344Z,21.5
2019-06-07T10:47:58.087Z,21.4
2019-06-07T10:48:57.640Z,21.4
2019-06-07T10:49:27.997Z,21.4
2019-06-07T10:49:58.378Z,21.4
2019-06-07T10:50:28.936Z,21.4
2019-06-07T10:55:53.274Z,21.4
2019-06-07T10:57:52.083Z,21.5
2019-06-07T10:59:50.785Z,21.6
2019-06-07T11:00:21.568Z,21.6
2019-06-07T11:01:49.831Z,21.7
2019-06-07T11:03:48.566Z,21.8
2019-06-07T11:04:47.970Z,21.8
2019-06-07T11:05:47.186Z,21.8
2019-06-07T11:06:46.802Z,21.8
2019-06-07T11:08:46.003Z,21.8
2019-06-07T11:10:44.783Z,21.8
2019-06-07T11:12:43.635Z,21.8
2019-06-07T11:14:42.326Z,21.8
2019-06-07T11:15:41.762Z,21.8
2019-06-07T11:17:40.362Z,21.8
2019-06-07T11:18:39.759Z,21.8
2019-06-07T11:19:39.182Z,21.7
2019-06-07T11:20:39.000Z,21.7
2019-06-07T11:21:38.418Z,21.7
2019-06-07T11:22:37.825Z,21.6
2019-06-07T11:23:37.111Z,21.6
2019-06-07T11:24:36.310Z,21.5
2019-06-07T11:25:35.618Z,21.5
2019-06-07T11:26:35.429Z,21.5
2019-06-07T11:27:11.151Z,21.5
2019-06-07T11:27:36.068Z,21.6
2019-06-07T11:28:08.230Z,21.6
2019-06-07T11:28:37.177Z,21.6
2019-06-07T11:29:12.697Z,21.6
2019-06-07T11:29:38.159Z,21.6
2019-06-07T11:30:33.209Z,21.6
2019-06-07T11:31:32.405Z,21.7
2019-06-07T11:33:31.205Z,21.5
2019-06-07T11:34:30.649Z,21.6
2019-06-07T11:35:30.263Z,21.5
2019-06-07T11:36:29.700Z,21.5
2019-06-07T11:37:30.114Z,21.5
2019-06-07T11:38:00.499Z,21.5
2019-06-07T11:38:31.013Z,21.5
2019-06-07T11:39:01.454Z,21.5
2019-06-07T11:40:36.462Z,21.4
2019-06-07T11:40:57.503Z,21.4
2019-06-07T11:41:27.794Z,21.4
2019-06-07T11:42:25.993Z,21.5
2019-06-07T11:43:25.288Z,21.4
2019-06-07T11:44:25.100Z,21.5
2019-06-07T11:45:24.582Z,21.5
2019-06-07T11:46:23.533Z,21.6
2019-06-07T11:47:23.332Z,21.6
2019-06-07T11:47:53.565Z,21.6
2019-06-07T11:48:24.076Z,21.7
2019-06-07T11:48:54.524Z,21.7
2019-06-07T11:49:24.948Z,21.7
2019-06-07T11:49:55.332Z,21.7
2019-06-07T11:51:20.994Z,21.8
2019-06-07T11:52:20.406Z,21.8
2019-06-07T11:53:20.515Z,21.8
2019-06-07T11:54:21.033Z,21.9
2019-06-07T11:55:19.684Z,21.9
2019-06-07T11:56:18.705Z,21.9
2019-06-07T11:57:17.931Z,22.1
2019-06-07T11:57:48.134Z,22.1
2019-06-07T11:58:22.388Z,22.3
2019-06-07T11:58:48.783Z,22.3
2019-06-07T11:59:19.296Z,22.4
2019-06-07T11:59:49.717Z,22.4
2019-06-07T12:00:19.916Z,22.6
2019-06-07T12:00:50.844Z,22.6
2019-06-07T12:02:17.438Z,22.5
2019-06-07T12:03:17.906Z,22.6
2019-06-07T12:04:35.251Z,22.6
2019-06-07T12:05:20.606Z,22.6
2019-06-07T12:06:14.270Z,22.6
2019-06-07T12:07:17.489Z,22.7
2019-06-07T12:08:12.372Z,22.8
2019-06-07T12:08:42.796Z,22.8
2019-06-07T12:10:12.818Z,22.9
2019-06-07T12:10:43.411Z,22.9
2019-06-07T12:11:12.434Z,22.9
2019-06-07T12:11:41.801Z,22.9
2019-06-07T12:12:13.049Z,22.9
2019-06-07T12:12:42.430Z,22.9
2019-06-07T12:14:10.871Z,22.8
2019-06-07T12:15:08.510Z,22.8
2019-06-07T12:16:06.923Z,22.7
2019-06-07T12:17:06.385Z,22.7
2019-06-07T12:18:05.801Z,22.6
2019-06-07T12:18:36.044Z,22.6
2019-06-07T12:19:06.456Z,22.6
2019-06-07T12:19:37.103Z,22.6
2019-06-07T12:20:14.717Z,22.8
2019-06-07T12:21:09.406Z,22.9
2019-06-07T12:21:38.346Z,22.9
2019-06-07T12:22:11.634Z,23
2019-06-07T12:22:39.243Z,23
2019-06-07T12:24:02.669Z,23.1
2019-06-07T12:25:06.111Z,23.2
2019-06-07T12:26:00.997Z,23.3
2019-06-07T12:27:00.801Z,23.3
2019-06-07T12:28:00.323Z,23.3
2019-06-07T12:28:59.516Z,23.3
2019-06-07T12:29:30.122Z,23.3
2019-06-07T12:30:18.021Z,23.3
2019-06-07T12:31:01.874Z,23.4
2019-06-07T12:31:32.385Z,23.4
2019-06-07T12:32:02.776Z,23.4
2019-06-07T12:32:33.160Z,23.4
2019-06-07T12:33:56.920Z,23.4
2019-06-07T12:34:56.121Z,23.3
2019-06-07T12:35:55.832Z,23.4
2019-06-07T12:36:54.946Z,23.4
2019-06-07T12:37:54.873Z,23.3
2019-06-07T12:38:54.268Z,23.3
2019-06-07T12:39:53.572Z,23.5
2019-06-07T12:40:58.373Z,23.6
2019-06-07T12:41:23.457Z,23.6
2019-06-07T12:41:53.995Z,23.5
2019-06-07T12:42:24.388Z,23.5
2019-06-07T12:43:51.178Z,23.3
2019-06-07T12:44:51.029Z,23.3